createdAt,value
2019-03-22T00:04:45.239Z,102024.43
2019-03-22T00:09:47.726Z,102009.22
2019-03-22T00:14:50.217Z,102011.18
2019-03-22T00:19:52.686Z,102001.38
2019-03-22T00:24:55.147Z,101998.62
2019-03-22T00:29:57.611Z,101995.84
2019-03-22T00:35:00.090Z,102004.42
2019-03-22T00:40:02.557Z,102001.59
2019-03-22T00:45:07.840Z,101995.03
2019-03-22T00:50:10.320Z,101991.15
2019-03-22T00:55:12.780Z,101991.26
2019-03-22T01:00:15.242Z,101997.15
2019-03-22T01:05:17.707Z,101998.39
2019-03-22T01:10:20.194Z,101994.58
2019-03-22T01:15:22.674Z,101998.14
2019-03-22T01:20:25.191Z,101991.28
2019-03-22T01:25:27.659Z,101985.55
2019-03-22T01:30:30.127Z,101993.83
2019-03-22T01:35:35.634Z,101985.02
2019-03-22T01:40:36.650Z,101987.93
2019-03-22T01:45:39.118Z,101985.28
2019-03-22T01:50:41.584Z,101985.31
2019-03-22T01:55:44.047Z,101984.73
2019-03-22T02:00:46.511Z,101986.15
2019-03-22T02:05:48.975Z,101987.06
2019-03-22T02:10:51.460Z,101977.72
2019-03-22T02:15:53.904Z,101976.20
2019-03-22T02:20:56.399Z,101980.39
2019-03-22T02:25:58.869Z,101983.38
2019-03-22T02:31:01.319Z,101989.09
2019-03-22T02:36:03.772Z,101986.28
2019-03-22T02:41:06.261Z,101979.22
2019-03-22T02:46:08.714Z,101979.00
2019-03-22T02:51:11.187Z,101978.43
2019-03-22T02:56:13.753Z,101983.61
2019-03-22T03:01:16.154Z,101972.78
2019-03-22T03:06:18.616Z,101979.97
2019-03-22T03:11:21.070Z,101974.99
2019-03-22T03:16:23.535Z,101980.74
2019-03-22T03:21:26.009Z,101989.55
2019-03-22T03:26:28.483Z,101981.05
2019-03-22T03:31:30.968Z,101971.02
2019-03-22T03:36:35.061Z,101978.20
2019-03-22T03:41:35.935Z,101976.97
2019-03-22T03:46:38.390Z,101981.53
2019-03-22T03:51:40.843Z,101986.71
2019-03-22T03:56:43.310Z,101987.03
2019-03-22T04:01:45.819Z,101995.95
2019-03-22T04:06:48.347Z,101993.69
2019-03-22T04:11:50.812Z,101994.59
2019-03-22T04:16:53.298Z,101993.23
2019-03-22T04:21:55.788Z,102002.95
2019-03-22T04:26:58.438Z,102001.70
2019-03-22T04:32:00.903Z,101995.89
2019-03-22T04:37:03.368Z,101994.94
2019-03-22T04:42:05.829Z,101998.49
2019-03-22T04:47:08.316Z,102006.64
2019-03-22T04:52:10.785Z,102001.34
2019-03-22T04:57:13.249Z,101999.86
2019-03-22T05:02:15.786Z,101992.30
2019-03-22T05:07:18.248Z,101994.10
2019-03-22T05:12:20.669Z,101993.98
2019-03-22T05:17:23.133Z,102000.09
2019-03-22T05:22:25.651Z,102000.63
2019-03-22T05:27:28.132Z,102000.52
2019-03-22T05:32:30.583Z,102014.54
2019-03-22T05:37:33.047Z,102016.25
2019-03-22T05:42:35.517Z,102011.89
2019-03-22T05:47:37.988Z,102019.26
2019-03-22T05:52:40.472Z,102013.59
2019-03-22T05:57:42.960Z,102022.59
2019-03-22T06:02:45.440Z,102019.83
2019-03-22T06:07:47.912Z,102027.14
2019-03-22T06:12:50.549Z,102035.42
2019-03-22T06:17:53.010Z,102041.19
2019-03-22T06:22:55.495Z,102052.75
2019-03-22T06:27:57.965Z,102045.82
2019-03-22T06:33:00.474Z,102050.34
2019-03-22T06:38:02.938Z,102052.44
2019-03-22T06:43:05.407Z,102060.67
2019-03-22T06:48:07.880Z,102064.25
2019-03-22T06:53:10.351Z,102072.56
2019-03-22T06:58:12.809Z,102073.38
2019-03-22T07:03:15.276Z,102075.70
2019-03-22T07:08:17.755Z,102066.98
2019-03-22T07:13:20.251Z,102068.28
2019-03-22T07:18:22.733Z,102075.23
2019-03-22T07:23:25.233Z,102063.11
2019-03-22T07:28:27.691Z,102057.40
2019-03-22T07:33:30.172Z,102063.05
2019-03-22T07:38:32.645Z,102062.42
2019-03-22T07:43:35.151Z,102055.34
2019-03-22T07:48:37.614Z,102055.06
2019-03-22T07:53:40.136Z,102039.91
2019-03-22T07:58:42.603Z,102039.47
2019-03-22T08:03:45.077Z,102046.63
2019-03-22T08:08:47.548Z,102052.92
2019-03-22T08:13:50.038Z,102042.91
2019-03-22T08:18:52.512Z,102044.78
2019-03-22T08:23:54.991Z,102045.44
2019-03-22T08:28:57.500Z,102044.19
2019-03-22T08:34:00.075Z,102036.42
2019-03-22T08:39:02.580Z,102025.22
2019-03-22T08:44:05.041Z,102026.45
2019-03-22T08:49:09.512Z,102028.17
2019-03-22T08:54:09.991Z,102034.51
2019-03-22T08:59:13.540Z,102034.31
2019-03-22T09:04:14.913Z,102029.70
2019-03-22T09:09:41.577Z,102027.44
2019-03-22T09:14:39.519Z,102031.19
2019-03-22T09:19:42.009Z,102028.64
2019-03-22T09:24:44.459Z,102021.23
2019-03-22T09:29:47.518Z,102017.00
2019-03-22T09:34:49.432Z,102007.05
2019-03-22T09:39:51.913Z,102003.66
2019-03-22T09:44:54.393Z,101999.17
2019-03-22T09:49:56.909Z,101994.97
2019-03-22T09:55:12.194Z,101983.11
2019-03-22T10:00:01.840Z,101975.70
2019-03-22T10:05:04.367Z,101969.35
2019-03-22T10:10:06.789Z,101965.87
2019-03-22T10:15:09.471Z,101957.79
2019-03-22T10:20:22.637Z,101955.98
2019-03-22T10:25:14.522Z,101962.42
2019-03-22T10:30:16.968Z,101939.85
2019-03-22T10:35:25.922Z,101942.36
2019-03-22T10:40:21.936Z,101942.55
2019-03-22T10:45:24.342Z,101948.16
2019-03-22T10:50:26.874Z,101937.93
2019-03-22T10:55:30.704Z,101943.92
2019-03-22T11:00:31.725Z,101933.38
2019-03-22T11:05:34.204Z,101930.27
2019-03-22T11:10:36.659Z,101923.67
2019-03-22T11:15:48.136Z,101907.97
2019-03-22T11:20:41.718Z,101899.36
2019-03-22T11:25:44.167Z,101899.07
2019-03-22T11:30:46.656Z,101883.91
2019-03-22T11:35:49.168Z,101878.06
2019-03-22T11:40:51.638Z,101887.84
2019-03-22T11:45:54.101Z,101882.06
2019-03-22T11:50:56.582Z,101872.19
2019-03-22T11:55:59.054Z,101865.97
2019-03-22T12:01:01.513Z,101860.27
2019-03-22T12:06:03.976Z,101845.08
2019-03-22T12:11:06.430Z,101840.31
2019-03-22T12:16:08.916Z,101841.59
2019-03-22T12:21:11.376Z,101829.02
2019-03-22T12:26:13.847Z,101826.19
2019-03-22T12:31:16.324Z,101820.50
2019-03-22T12:36:18.800Z,101816.44
2019-03-22T12:41:21.263Z,101805.22
2019-03-22T12:46:23.753Z,101805.66
2019-03-22T12:51:26.238Z,101796.63
2019-03-22T12:56:28.729Z,101792.78
2019-03-22T13:01:31.192Z,101782.48
2019-03-22T13:06:33.666Z,101780.74
2019-03-22T13:11:36.299Z,101759.27
2019-03-22T13:16:38.754Z,101755.05
2019-03-22T13:21:41.217Z,101750.60
2019-03-22T13:26:43.715Z,101748.63
2019-03-22T13:31:46.197Z,101738.76
2019-03-22T13:36:48.680Z,101739.14
2019-03-22T13:41:51.150Z,101728.49
2019-03-22T13:46:53.603Z,101713.45
2019-03-22T13:51:56.072Z,101718.48
2019-03-22T13:56:58.538Z,101710.22
2019-03-22T14:02:01.032Z,101710.36
2019-03-22T14:07:03.505Z,101703.05
2019-03-22T14:12:05.993Z,101694.65
2019-03-22T14:17:08.478Z,101695.47
2019-03-22T14:22:10.958Z,101690.68
2019-03-22T14:27:13.408Z,101687.78
2019-03-22T14:32:15.869Z,101681.52
2019-03-22T14:37:18.360Z,101675.36
2019-03-22T14:42:20.826Z,101674.80
2019-03-22T14:47:23.306Z,101663.89
2019-03-22T14:52:25.760Z,101654.44
2019-03-22T14:57:28.241Z,101651.66
2019-03-22T15:02:30.716Z,101644.05
2019-03-22T15:07:33.200Z,101646.17
2019-03-22T15:12:35.645Z,101631.09
2019-03-22T15:17:56.238Z,101627.80
2019-03-22T15:23:10.695Z,101618.27
2019-03-22T15:28:22.144Z,101623.63
2019-03-22T15:33:34.645Z,101612.41
2019-03-22T15:38:48.030Z,101604.34
2019-03-22T15:43:50.310Z,101599.19
2019-03-22T15:48:52.787Z,101591.66
2019-03-22T15:53:55.244Z,101590.38
2019-03-22T15:58:57.766Z,101584.36
2019-03-22T16:04:00.247Z,101584.33
2019-03-22T16:09:02.701Z,101583.98
2019-03-22T16:14:05.169Z,101577.77
2019-03-22T16:19:07.615Z,101588.38
2019-03-22T16:24:10.668Z,101593.16
2019-03-22T16:29:13.103Z,101592.27
2019-03-22T16:34:15.568Z,101600.59
2019-03-22T16:39:18.064Z,101598.78
2019-03-22T16:44:20.528Z,101588.88
2019-03-22T16:49:22.986Z,101589.61
2019-03-22T16:54:29.499Z,101598.23
2019-03-22T16:59:31.969Z,101601.73
2019-03-22T17:04:34.440Z,101600.78
2019-03-22T17:09:36.920Z,101607.44
2019-03-22T17:14:39.383Z,101613.42
2019-03-22T17:19:41.861Z,101611.14
2019-03-22T17:24:44.339Z,101606.27
2019-03-22T17:29:46.803Z,101615.81
2019-03-22T17:34:49.289Z,101613.88
2019-03-22T17:39:51.751Z,101613.47
2019-03-22T17:44:54.222Z,101618.16
2019-03-22T17:49:56.686Z,101621.88
2019-03-22T17:54:59.153Z,101626.55
2019-03-22T18:00:01.613Z,101625.00
2019-03-22T18:05:04.101Z,101628.12
2019-03-22T18:10:06.576Z,101630.84
2019-03-22T18:15:09.043Z,101634.75
2019-03-22T18:20:14.200Z,101639.92
2019-03-22T18:25:16.668Z,101637.73
2019-03-22T18:30:19.128Z,101648.73
2019-03-22T18:35:21.612Z,101639.01
2019-03-22T18:40:24.067Z,101642.78
2019-03-22T18:45:26.532Z,101633.68
2019-03-22T18:50:28.999Z,101634.90
2019-03-22T18:55:31.481Z,101633.13
2019-03-22T19:00:33.959Z,101638.49
2019-03-22T19:05:36.447Z,101640.07
2019-03-22T19:10:38.950Z,101638.42
2019-03-22T19:15:41.446Z,101637.31
2019-03-22T19:20:43.926Z,101629.67
2019-03-22T19:25:46.409Z,101635.12
2019-03-22T19:30:48.882Z,101631.25
2019-03-22T19:35:51.372Z,101643.66
2019-03-22T19:40:53.848Z,101642.48
2019-03-22T19:45:56.354Z,101639.93
2019-03-22T19:50:58.801Z,101643.00
2019-03-22T19:56:01.278Z,101643.94
2019-03-22T20:01:03.778Z,101647.42
2019-03-22T20:06:06.274Z,101647.00
2019-03-22T20:11:08.742Z,101655.81
2019-03-22T20:16:11.200Z,101648.75
2019-03-22T20:21:13.665Z,101653.24
2019-03-22T20:26:16.155Z,101648.51
2019-03-22T20:31:18.653Z,101650.97
2019-03-22T20:36:21.127Z,101647.48
2019-03-22T20:41:23.604Z,101649.02
2019-03-22T20:46:26.073Z,101652.09
2019-03-22T20:51:28.560Z,101647.98
2019-03-22T20:56:31.032Z,101646.39
2019-03-22T21:01:33.507Z,101655.83
2019-03-22T21:06:35.989Z,101644.70
2019-03-22T21:11:38.455Z,101644.05
2019-03-22T21:16:40.941Z,101653.60
2019-03-22T21:21:43.422Z,101652.80
2019-03-22T21:26:45.904Z,101659.89
2019-03-22T21:31:48.399Z,101660.13
2019-03-22T21:36:50.863Z,101663.97
2019-03-22T21:41:53.343Z,101666.45
2019-03-22T21:46:55.898Z,101662.88
2019-03-22T21:51:58.307Z,101658.55
2019-03-22T21:57:00.805Z,101662.38
2019-03-22T22:02:03.320Z,101657.16
2019-03-22T22:07:05.850Z,101660.00
2019-03-22T22:12:08.342Z,101662.21
2019-03-22T22:17:10.842Z,101660.94
2019-03-22T22:22:13.318Z,101667.74
2019-03-22T22:27:15.839Z,101657.84
2019-03-22T22:32:18.294Z,101660.20
2019-03-22T22:37:20.805Z,101650.28
2019-03-22T22:42:23.293Z,101654.34
2019-03-22T22:47:25.776Z,101645.03
2019-03-22T22:52:31.049Z,101642.69
2019-03-22T22:57:33.542Z,101644.02
2019-03-22T23:02:36.010Z,101645.16
2019-03-22T23:07:38.515Z,101645.28
2019-03-22T23:12:40.976Z,101653.72
2019-03-22T23:17:43.455Z,101652.42
2019-03-22T23:22:45.906Z,101644.38
2019-03-22T23:27:48.383Z,101645.47
2019-03-22T23:32:50.869Z,101648.56
2019-03-22T23:37:53.341Z,101654.25
2019-03-22T23:42:55.827Z,101654.43
2019-03-22T23:47:58.300Z,101649.45
2019-03-22T23:53:00.776Z,101652.88
2019-03-22T23:58:03.249Z,101654.49
